Kodiak Municipal Airport


Codes: PAKD/KDK
Name: Kodiak Municipal Airport
City: Kodiak
Country: United States
Elevation: 139 ft.
Wikipedia:

Photos at Kodiak Municipal Airport


   Photos courtesy of SpottingLog. You can add your own sightings and photos by signing up for a free trial today.



No photos found.

Weather at Kodiak Municipal Airport


Time (UTC)DescriptionTempratureWindCloud coverageVisibilityPressureHumidity
19-Apr-2024 03:00Moderate Rain6°C22 mph, E100%6536m1012hPa93%
19-Apr-2024 06:00Moderate Rain5°C20 mph, E100%3559m1012hPa95%
19-Apr-2024 09:00Light Rain5°C18 mph, E100%2325m1012hPa97%
19-Apr-2024 12:00Moderate Rain4°C18 mph, E100%3213m1012hPa97%
19-Apr-2024 15:00Moderate Rain5°C20 mph, E100%2996m1011hPa97%
19-Apr-2024 18:00Moderate Rain4°C22 mph, E100%3703m1011hPa97%
19-Apr-2024 21:00Moderate Rain4°C22 mph, E100%3129m1010hPa97%
20-Apr-2024 00:00Moderate Rain4°C22 mph, E100%3193m1009hPa97%
20-Apr-2024 03:00Moderate Rain5°C18 mph, E100%3275m1009hPa98%
20-Apr-2024 06:00Light Rain4°C9 mph, E100%3385m1010hPa98%
20-Apr-2024 09:00Moderate Rain4°C7 mph, E100%3742m1010hPa97%
20-Apr-2024 12:00Light Rain4°C13 mph, E100%2392m1009hPa97%
20-Apr-2024 15:00Moderate Rain4°C13 mph, E100%5868m1008hPa97%
20-Apr-2024 18:00Light Rain4°C13 mph, E100%7095m1009hPa97%
20-Apr-2024 21:00Moderate Rain4°C13 mph, E100%4847m1008hPa96%
21-Apr-2024 00:00Moderate Rain4°C9 mph, E100%5170m1007hPa97%
21-Apr-2024 03:00Light Rain4°C7 mph, E100%6979m1007hPa96%
21-Apr-2024 06:00Light Rain4°C13 mph, E100%5808m1007hPa97%
21-Apr-2024 09:00Moderate Rain4°C4 mph, E100%4645m1008hPa97%
21-Apr-2024 12:00Moderate Rain3°C9 mph, NW100%897m1006hPa97%
21-Apr-2024 15:00Light Rain3°C7 mph, W100%860m1005hPa98%
21-Apr-2024 18:00Light Rain3°C7 mph, S100%93m1007hPa98%
21-Apr-2024 21:00Light Rain4°C16 mph, S87%10000m1009hPa80%
22-Apr-2024 00:00Scattered Clouds5°C13 mph, SE50%10000m1012hPa74%
22-Apr-2024 03:00Broken Clouds4°C9 mph, SE63%10000m1013hPa82%
22-Apr-2024 06:00Broken Clouds4°C7 mph, SE76%10000m1014hPa83%
22-Apr-2024 09:00Broken Clouds3°C7 mph, S65%10000m1016hPa85%
22-Apr-2024 12:00Broken Clouds3°C7 mph, SE82%10000m1017hPa83%
22-Apr-2024 15:00Overcast Clouds3°C4 mph, SE100%10000m1017hPa82%
22-Apr-2024 18:00Overcast Clouds4°C4 mph, E100%10000m1018hPa83%
22-Apr-2024 21:00Light Rain4°C7 mph, E100%8556m1017hPa85%
23-Apr-2024 00:00Light Rain3°C7 mph, E100%10000m1017hPa90%
23-Apr-2024 03:00Light Rain3°C9 mph, E100%148m1017hPa98%
23-Apr-2024 06:00Light Rain3°C9 mph, NE100%97m1016hPa98%
23-Apr-2024 09:00Light Rain3°C9 mph, NE100%909m1016hPa97%
23-Apr-2024 12:00Light Rain4°C9 mph, NE100%7415m1014hPa97%
23-Apr-2024 15:00Light Rain4°C9 mph, NE100%4407m1013hPa98%
23-Apr-2024 18:00Light Rain4°C11 mph, E100%3105m1013hPa99%
23-Apr-2024 21:00Light Rain5°C13 mph, SE100%3074m1013hPa98%
24-Apr-2024 00:00Light Rain5°C11 mph, SE100%5261m1013hPa98%